メインページ
METAR-TAF:

METAR-TAF

空港 :

ポートオブスペイン, Trinidad, トリニダード・トバゴ

緯度: 10-37N, 経度: 061-21W, 海抜: 12m

現時点の気象観測

当レポートは1時間19分前の05:00(UTC)に作成
の風 6kt
気温 25°C
湿度 89%
気圧 1012 hPa
視程10km以上
高度1600ftの雲はほとんどない

METAR: TTPP 280500Z 10006KT 9999 FEW016 25/23 Q1012 NOSIG

時間: 02:19 (06:19 UTC)

予報

当レポートは2時間19分前の04:00(UTC)に作成
予報は28日の 06時(UTC)から 29日の 06時(UTC)まで有効
の風 5kt
視程10km以上
高度1600ftの雲はほとんどない
28日の 12時(UTC)から 28日の 14時(UTC)まで徐々に
の風 12kt
高度2000ftの雲は散在している
28日の 23時(UTC)から 29日の 01時(UTC)まで徐々に
の風 5kt
高度1600ftの雲はほとんどない

TAF: TTPP 280400Z 2806/2906 10005KT 9999 FEW016 BECMG 2812/2814 10012KT SCT020 BECMG 2823/2901 10005KT FEW016

4,000以上の空港の気象観測と天気予報(METAR報とTAF報)

利用可能な観測所は地図上に黄色い丸と赤い丸で示す。

丸の上にカーソルを重ねると観測所名を参照できる。

次にクリックすると気象観測と天気予報を参照できる。

マップの切り替え:黒色「×」印の緑ボタンをクリックして拡大、「-」印の緑ボタンをクリックして縮小、緑色の三角印をクリックして隣りの地図に切り替え


METAR-TAF: